Latest Weather Observations for South Channel Island

IDV60801

Issued at 9:42 am EDT Wednesday 14 November 2018 (issued every 10 minutes, with the page automatically refreshed every 10 minutes)

About weather observations | Map of weather stations | Latest weather observations for VIC | Other Formats
Station Details ID: 086344 Name: SOUTH CHANNEL ISLAND Lat: -38.31 Lon: 144.80 Height: 9.0 m
Data from the previous 72 hours. | See also: Recent months for locations in Victoria
Date/Time
EDT
Temp
°C
App
Temp
°C
Dew
Point
°C
Rel
Hum
%
Delta-T
°C
Wind Press
QNH
hPa
Press
MSL
hPa
Rain since
9am
mm
Dir  Spd
km/h
Gust
km/h
Spd
kts
Gust
kts
14/09:30am - - - - - SSW 22 28 12 15 - - -
14/09:00am - - - - - S 24 26 13 14 - - -
14/08:30am - - - - - SSW 26 30 14 16 - - -
14/08:00am - - - - - S 26 30 14 16 - - -
14/07:30am - - - - - SSW 28 32 15 17 - - -
14/07:00am - - - - - SSW 30 33 16 18 - - -
14/06:30am - - - - - SSW 28 32 15 17 - - -
14/06:00am - - - - - SSW 32 35 17 19 - - -
14/05:30am - - - - - SSW 17 22 9 12 - - -
14/05:00am - - - - - SSW 19 22 10 12 - - -
14/04:30am - - - - - SW 15 17 8 9 - - -
14/04:00am - - - - - SW 11 13 6 7 - - -
14/03:30am - - - - - SW 9 11 5 6 - - -
14/03:00am - - - - - SW 15 17 8 9 - - -
14/02:30am - - - - - SW 19 22 10 12 - - -
14/02:00am - - - - - SSW 19 24 10 13 - - -
14/01:30am - - - - - SSW 20 26 11 14 - - -
14/01:00am - - - - - SSW 20 24 11 13 - - -
14/12:30am - - - - - SSW 24 28 13 15 - - -
14/12:00am - - - - - SSW 26 30 14 16 - - -
 
Date/Time
EDT
Temp
°C
App
Temp
°C
Dew
Point
°C
Rel
Hum
%
Delta-T
°C
Wind Press
QNH
hPa
Press
MSL
hPa
Rain since
9am
mm
Dir  Spd
km/h
Gust
km/h
Spd
kts
Gust
kts
13/11:30pm - - - - - SSW 26 30 14 16 - - -
13/11:00pm - - - - - SW 32 39 17 21 - - -
13/10:30pm - - - - - SSW 35 41 19 22 - - -
13/10:00pm - - - - - SSW 32 35 17 19 - - -
13/09:30pm - - - - - SW 28 33 15 18 - - -
13/09:00pm - - - - - SSW 37 48 20 26 - - -
13/08:46pm - - - - - SW 35 50 19 27 - - -
13/08:30pm - - - - - SSW 26 32 14 17 - - -
13/08:16pm - - - - - SW 32 37 17 20 - - -
13/08:00pm - - - - - WSW 41 52 22 28 - - -
13/07:56pm - - - - - WSW 32 52 17 28 - - -
13/07:30pm - - - - - S 28 32 15 17 - - -
13/07:00pm - - - - - SSW 33 41 18 22 - - -
13/06:30pm - - - - - SW 39 48 21 26 - - -
13/06:00pm - - - - - SW 35 43 19 23 - - -
13/05:30pm - - - - - SW 28 33 15 18 - - -
13/05:03pm - - - - - NW 32 54 17 29 - - -
13/05:00pm - - - - - NNW 33 43 18 23 - - -
13/04:58pm - - - - - NNW 35 43 19 23 - - -
13/04:30pm - - - - - N 46 52 25 28 - - -
13/04:00pm - - - - - N 39 43 21 23 - - -
13/03:30pm - - - - - N 39 46 21 25 - - -
13/03:00pm - - - - - N 39 44 21 24 - - -
13/02:30pm - - - - - N 44 48 24 26 - - -
13/02:00pm - - - - - N 41 48 22 26 - - -
13/01:30pm - - - - - N 33 37 18 20 - - -
13/01:00pm - - - - - N 37 39 20 21 - - -
13/12:30pm - - - - - NNE 32 35 17 19 - - -
13/12:00pm - - - - - NNE 32 35 17 19 - - -
13/11:30am - - - - - NE 30 33 16 18 - - -
13/11:00am - - - - - NE 32 35 17 19 - - -
13/10:30am - - - - - NE 35 37 19 20 - - -
13/10:00am - - - - - NE 32 48 17 26 - - -
13/09:55am - - - - - NE 33 48 18 26 - - -
13/09:30am - - - - - NE 24 28 13 15 - - -
13/09:00am - - - - - NE 13 22 7 12 - - -
13/08:30am - - - - - NE 15 19 8 10 - - -
13/08:00am - - - - - NE 9 13 5 7 - - -
13/07:30am - - - - - N 7 9 4 5 - - -
13/07:00am - - - - - SW 4 11 2 6 - - -
13/06:30am - - - - - WNW 9 11 5 6 - - -
13/06:00am - - - - - NE 22 30 12 16 - - -
13/05:30am - - - - - ENE 24 26 13 14 - - -
13/05:00am - - - - - ENE 20 24 11 13 - - -
13/04:30am - - - - - ENE 20 22 11 12 - - -
13/04:00am - - - - - ENE 24 26 13 14 - - -
13/03:30am - - - - - ENE 20 28 11 15 - - -
13/03:00am - - - - - ENE 26 28 14 15 - - -
13/02:30am - - - - - ENE 30 32 16 17 - - -
13/02:00am - - - - - ENE 30 32 16 17 - - -
13/01:30am - - - - - ENE 32 33 17 18 - - -
13/01:00am - - - - - ENE 32 33 17 18 - - -
13/12:30am - - - - - ENE 32 35 17 19 - - -
13/12:00am - - - - - E 32 33 17 18 - - -
 
Date/Time
EDT
Temp
°C
App
Temp
°C
Dew
Point
°C
Rel
Hum
%
Delta-T
°C
Wind Press
QNH
hPa
Press
MSL
hPa
Rain since
9am
mm
Dir  Spd
km/h
Gust
km/h
Spd
kts
Gust
kts
12/11:30pm - - - - - ENE 35 37 19 20 - - -
12/11:00pm - - - - - ENE 32 35 17 19 - - -
12/10:30pm - - - - - ENE 32 33 17 18 - - -
12/10:00pm - - - - - ENE 32 33 17 18 - - -
12/09:30pm - - - - - ENE 32 33 17 18 - - -
12/09:00pm - - - - - ENE 33 35 18 19 - - -
12/08:30pm - - - - - ENE 33 35 18 19 - - -
12/08:00pm - - - - - ENE 32 32 17 17 - - -
12/07:30pm - - - - - ENE 30 32 16 17 - - -
12/07:00pm - - - - - ENE 28 30 15 16 - - -
12/06:30pm - - - - - ENE 28 30 15 16 - - -
12/06:00pm - - - - - NE 30 32 16 17 - - -
12/05:30pm - - - - - NE 30 32 16 17 - - -
12/05:00pm - - - - - ENE 26 26 14 14 - - -
12/04:30pm - - - - - ENE 22 26 12 14 - - -
12/04:00pm - - - - - ENE 20 22 11 12 - - -
12/03:30pm - - - - - ENE 19 20 10 11 - - -
12/03:00pm - - - - - E 15 17 8 9 - - -
12/02:30pm - - - - - E 11 13 6 7 - - -
12/02:00pm - - - - - N 6 7 3 4 - - -
12/01:30pm - - - - - CALM 0 0 0 0 - - -
12/01:00pm - - - - - N 6 7 3 4 - - -
12/12:30pm - - - - - N 6 7 3 4 - - -
12/12:00pm - - - - - NNE 6 6 3 3 - - -
12/11:30am - - - - - NNE 9 9 5 5 - - -
12/11:00am - - - - - NNE 9 9 5 5 - - -
12/10:30am - - - - - NE 9 11 5 6 - - -
12/10:00am - - - - - NE 15 19 8 10 - - -
12/09:30am - - - - - NE 17 17 9 9 - - -
12/09:00am - - - - - NE 17 19 9 10 - - -
12/08:30am - - - - - NE 19 20 10 11 - - -
12/08:00am - - - - - NE 20 22 11 12 - - -
12/07:30am - - - - - ENE 22 26 12 14 - - -
12/07:00am - - - - - NE 22 26 12 14 - - -
12/06:30am - - - - - NE 20 26 11 14 - - -
12/06:00am - - - - - ENE 20 24 11 13 - - -
12/05:30am - - - - - ENE 20 24 11 13 - - -
12/05:00am - - - - - NE 24 28 13 15 - - -
12/04:30am - - - - - ENE 32 35 17 19 - - -
12/04:00am - - - - - ENE 28 33 15 18 - - -
12/03:30am - - - - - ENE 28 30 15 16 - - -
12/03:00am - - - - - ENE 30 33 16 18 - - -
12/02:30am - - - - - E 30 33 16 18 - - -
12/02:00am - - - - - ENE 28 30 15 16 - - -
12/01:30am - - - - - ENE 32 33 17 18 - - -
12/01:00am - - - - - ENE 32 35 17 19 - - -
12/12:30am - - - - - E 24 28 13 15 - - -
12/12:00am - - - - - E 24 30 13 16 - - -
 
Date/Time
EDT
Temp
°C
App
Temp
°C
Dew
Point
°C
Rel
Hum
%
Delta-T
°C
Wind Press
QNH
hPa
Press
MSL
hPa
Rain since
9am
mm
Dir  Spd
km/h
Gust
km/h
Spd
kts
Gust
kts
11/11:30pm - - - - - ESE 20 26 11 14 - - -
11/11:00pm - - - - - SE 24 28 13 15 - - -
11/10:30pm - - - - - SE 30 33 16 18 - - -
11/10:00pm - - - - - SE 28 32 15 17 - - -
11/09:30pm - - - - - SE 26 30 14 16 - - -
11/09:00pm - - - - - SE 30 33 16 18 - - -
11/08:30pm - - - - - SE 30 33 16 18 - - -
11/08:00pm - - - - - SE 32 35 17 19 - - -
11/07:30pm - - - - - SE 28 32 15 17 - - -
11/07:00pm - - - - - SE 30 33 16 18 - - -
11/06:30pm - - - - - SE 28 32 15 17 - - -
11/06:00pm - - - - - SE 26 30 14 16 - - -
11/05:30pm - - - - - SE 28 32 15 17 - - -
11/05:00pm - - - - - S 30 33 16 18 - - -
11/04:30pm - - - - - S 30 35 16 19 - - -
11/04:00pm - - - - - S 28 32 15 17 - - -
11/03:30pm - - - - - S 30 33 16 18 - - -
11/03:00pm - - - - - SSW 28 33 15 18 - - -
11/02:30pm - - - - - SSW 24 28 13 15 - - -
11/02:00pm - - - - - SSW 22 26 12 14 - - -
11/01:30pm - - - - - SW 13 15 7 8 - - -
11/01:00pm - - - - - SW 13 15 7 8 - - -
11/12:30pm - - - - - SSW 11 15 6 8 - - -
11/12:00pm - - - - - SW 9 13 5 7 - - -
11/11:30am - - - - - WSW 9 9 5 5 - - -
11/11:00am - - - - - CALM 0 6 0 3 - - -
11/10:30am - - - - - NE 7 7 4 4 - - -
11/10:00am - - - - - NE 11 13 6 7 - - -

Other Formats:

Comma delimited format used in spreadsheet applications
http://www.bom.gov.au/fwo/IDV60801/IDV60801.94853.axf

JavaScript Object Notation format (JSON) in row-major order
http://www.bom.gov.au/fwo/IDV60801/IDV60801.94853.json